sensor_id;sensor_type;location;lat;lon;timestamp;P1;durP1;ratioP1;P2;durP2;ratioP2
3967;SDS011;9221;42.646;23.380;2023-05-07T00:01:38;11.63;;;3.37;;
3967;SDS011;9221;42.646;23.380;2023-05-07T00:04:04;8.50;;;2.80;;
3967;SDS011;9221;42.646;23.380;2023-05-07T00:06:29;4.87;;;2.30;;
3967;SDS011;9221;42.646;23.380;2023-05-07T00:08:56;4.67;;;2.67;;
3967;SDS011;9221;42.646;23.380;2023-05-07T00:11:21;9.57;;;3.13;;
3967;SDS011;9221;42.646;23.380;2023-05-07T00:13:47;6.00;;;2.70;;
3967;SDS011;9221;42.646;23.380;2023-05-07T00:16:13;3.63;;;2.37;;
3967;SDS011;9221;42.646;23.380;2023-05-07T00:18:38;8.83;;;2.53;;
3967;SDS011;9221;42.646;23.380;2023-05-07T00:21:04;7.30;;;3.30;;
3967;SDS011;9221;42.646;23.380;2023-05-07T00:23:30;5.80;;;2.60;;
3967;SDS011;9221;42.646;23.380;2023-05-07T00:25:55;10.03;;;3.57;;
3967;SDS011;9221;42.646;23.380;2023-05-07T00:28:21;4.20;;;2.70;;
3967;SDS011;9221;42.646;23.380;2023-05-07T00:30:46;6.70;;;2.97;;
3967;SDS011;9221;42.646;23.380;2023-05-07T00:33:11;7.60;;;2.60;;
3967;SDS011;9221;42.646;23.380;2023-05-07T00:35:37;10.90;;;3.13;;
3967;SDS011;9221;42.646;23.380;2023-05-07T00:38:02;4.83;;;2.60;;
3967;SDS011;9221;42.646;23.380;2023-05-07T00:40:28;4.57;;;2.47;;
3967;SDS011;9221;42.646;23.380;2023-05-07T00:42:53;5.50;;;2.53;;
3967;SDS011;9221;42.646;23.380;2023-05-07T00:45:23;6.20;;;2.80;;
3967;SDS011;9221;42.646;23.380;2023-05-07T00:47:57;8.37;;;3.23;;
3967;SDS011;9221;42.646;23.380;2023-05-07T00:50:24;13.10;;;4.63;;
3967;SDS011;9221;42.646;23.380;2023-05-07T00:52:50;11.67;;;4.00;;
3967;SDS011;9221;42.646;23.380;2023-05-07T00:55:15;7.30;;;3.20;;
3967;SDS011;9221;42.646;23.380;2023-05-07T00:57:41;4.50;;;2.63;;
3967;SDS011;9221;42.646;23.380;2023-05-07T01:00:07;6.10;;;3.00;;
3967;SDS011;9221;42.646;23.380;2023-05-07T01:02:35;5.83;;;3.17;;
3967;SDS011;9221;42.646;23.380;2023-05-07T01:05:01;4.70;;;2.87;;
3967;SDS011;9221;42.646;23.380;2023-05-07T01:07:29;6.87;;;3.03;;
3967;SDS011;9221;42.646;23.380;2023-05-07T01:09:55;4.43;;;2.70;;
3967;SDS011;9221;42.646;23.380;2023-05-07T01:12:21;6.07;;;3.53;;
3967;SDS011;9221;42.646;23.380;2023-05-07T01:14:48;7.50;;;3.13;;
3967;SDS011;9221;42.646;23.380;2023-05-07T01:17:15;5.33;;;2.70;;
3967;SDS011;9221;42.646;23.380;2023-05-07T01:19:40;6.00;;;2.60;;
3967;SDS011;9221;42.646;23.380;2023-05-07T01:22:07;22.07;;;3.70;;
3967;SDS011;9221;42.646;23.380;2023-05-07T01:24:34;12.80;;;3.37;;
3967;SDS011;9221;42.646;23.380;2023-05-07T01:27:01;10.30;;;3.53;;
3967;SDS011;9221;42.646;23.380;2023-05-07T01:29:27;10.80;;;3.27;;
3967;SDS011;9221;42.646;23.380;2023-05-07T01:31:53;8.33;;;3.60;;
3967;SDS011;9221;42.646;23.380;2023-05-07T01:34:20;7.93;;;3.70;;
3967;SDS011;9221;42.646;23.380;2023-05-07T01:36:46;6.10;;;3.57;;
3967;SDS011;9221;42.646;23.380;2023-05-07T01:39:13;7.30;;;3.90;;
3967;SDS011;9221;42.646;23.380;2023-05-07T01:41:39;7.03;;;3.93;;
3967;SDS011;9221;42.646;23.380;2023-05-07T01:44:05;13.70;;;4.07;;
3967;SDS011;9221;42.646;23.380;2023-05-07T01:46:31;10.00;;;4.60;;
3967;SDS011;9221;42.646;23.380;2023-05-07T01:48:57;6.73;;;4.00;;
3967;SDS011;9221;42.646;23.380;2023-05-07T01:51:24;15.10;;;4.57;;
3967;SDS011;9221;42.646;23.380;2023-05-07T01:53:51;10.20;;;4.93;;
3967;SDS011;9221;42.646;23.380;2023-05-07T01:56:18;7.60;;;4.33;;
3967;SDS011;9221;42.646;23.380;2023-05-07T01:58:45;11.03;;;4.67;;
3967;SDS011;9221;42.646;23.380;2023-05-07T02:01:12;9.40;;;5.00;;
3967;SDS011;9221;42.646;23.380;2023-05-07T02:03:38;13.80;;;5.67;;
3967;SDS011;9221;42.646;23.380;2023-05-07T02:06:03;12.37;;;5.50;;
3967;SDS011;9221;42.646;23.380;2023-05-07T02:08:29;12.27;;;5.07;;
3967;SDS011;9221;42.646;23.380;2023-05-07T02:10:55;9.70;;;4.57;;
3967;SDS011;9221;42.646;23.380;2023-05-07T02:13:20;12.00;;;4.47;;
3967;SDS011;9221;42.646;23.380;2023-05-07T02:15:47;12.23;;;4.97;;
3967;SDS011;9221;42.646;23.380;2023-05-07T02:18:15;15.47;;;5.50;;
3967;SDS011;9221;42.646;23.380;2023-05-07T02:20:41;12.70;;;5.80;;
3967;SDS011;9221;42.646;23.380;2023-05-07T02:23:07;15.90;;;5.23;;
3967;SDS011;9221;42.646;23.380;2023-05-07T02:25:32;12.30;;;5.60;;
3967;SDS011;9221;42.646;23.380;2023-05-07T02:27:58;11.40;;;5.10;;
3967;SDS011;9221;42.646;23.380;2023-05-07T02:30:24;15.70;;;5.90;;
3967;SDS011;9221;42.646;23.380;2023-05-07T02:32:50;12.47;;;5.47;;
3967;SDS011;9221;42.646;23.380;2023-05-07T02:35:15;14.83;;;5.80;;
3967;SDS011;9221;42.646;23.380;2023-05-07T02:37:41;13.90;;;4.60;;
3967;SDS011;9221;42.646;23.380;2023-05-07T02:40:06;11.03;;;6.43;;
3967;SDS011;9221;42.646;23.380;2023-05-07T02:42:32;12.93;;;5.97;;
3967;SDS011;9221;42.646;23.380;2023-05-07T02:44:57;11.97;;;6.10;;
3967;SDS011;9221;42.646;23.380;2023-05-07T02:47:23;14.03;;;4.60;;
3967;SDS011;9221;42.646;23.380;2023-05-07T02:49:48;10.70;;;5.57;;
3967;SDS011;9221;42.646;23.380;2023-05-07T02:52:14;14.20;;;5.97;;
3967;SDS011;9221;42.646;23.380;2023-05-07T02:54:39;13.43;;;5.67;;
3967;SDS011;9221;42.646;23.380;2023-05-07T02:57:04;12.37;;;5.53;;
3967;SDS011;9221;42.646;23.380;2023-05-07T02:59:30;17.27;;;5.40;;
3967;SDS011;9221;42.646;23.380;2023-05-07T03:01:55;14.73;;;5.73;;
3967;SDS011;9221;42.646;23.380;2023-05-07T03:04:20;18.10;;;6.37;;
3967;SDS011;9221;42.646;23.380;2023-05-07T03:06:46;17.10;;;6.90;;
3967;SDS011;9221;42.646;23.380;2023-05-07T03:09:11;15.23;;;6.57;;
3967;SDS011;9221;42.646;23.380;2023-05-07T03:11:37;19.33;;;6.93;;
3967;SDS011;9221;42.646;23.380;2023-05-07T03:14:02;15.20;;;6.80;;
3967;SDS011;9221;42.646;23.380;2023-05-07T03:16:28;17.07;;;6.93;;
3967;SDS011;9221;42.646;23.380;2023-05-07T03:18:53;18.83;;;7.93;;
3967;SDS011;9221;42.646;23.380;2023-05-07T03:21:19;14.10;;;6.40;;
3967;SDS011;9221;42.646;23.380;2023-05-07T03:23:44;17.93;;;7.17;;
3967;SDS011;9221;42.646;23.380;2023-05-07T03:26:10;14.93;;;7.30;;
3967;SDS011;9221;42.646;23.380;2023-05-07T03:28:36;17.00;;;7.20;;
3967;SDS011;9221;42.646;23.380;2023-05-07T03:31:02;17.60;;;7.40;;
3967;SDS011;9221;42.646;23.380;2023-05-07T03:33:27;16.80;;;7.70;;
3967;SDS011;9221;42.646;23.380;2023-05-07T03:35:53;17.03;;;7.63;;
3967;SDS011;9221;42.646;23.380;2023-05-07T03:38:18;14.33;;;6.93;;
3967;SDS011;9221;42.646;23.380;2023-05-07T03:40:43;16.63;;;7.60;;
3967;SDS011;9221;42.646;23.380;2023-05-07T03:43:09;18.33;;;8.27;;
3967;SDS011;9221;42.646;23.380;2023-05-07T03:45:34;19.00;;;7.73;;
3967;SDS011;9221;42.646;23.380;2023-05-07T03:48:00;17.50;;;7.80;;
3967;SDS011;9221;42.646;23.380;2023-05-07T03:50:25;18.93;;;7.93;;
3967;SDS011;9221;42.646;23.380;2023-05-07T03:52:51;17.40;;;7.20;;
3967;SDS011;9221;42.646;23.380;2023-05-07T03:55:16;18.97;;;8.47;;
3967;SDS011;9221;42.646;23.380;2023-05-07T03:57:42;26.57;;;9.07;;
3967;SDS011;9221;42.646;23.380;2023-05-07T04:00:07;18.43;;;7.73;;
3967;SDS011;9221;42.646;23.380;2023-05-07T04:02:33;37.97;;;8.57;;
3967;SDS011;9221;42.646;23.380;2023-05-07T04:04:58;21.93;;;7.50;;
3967;SDS011;9221;42.646;23.380;2023-05-07T04:07:24;19.20;;;7.93;;
3967;SDS011;9221;42.646;23.380;2023-05-07T04:09:49;16.10;;;6.97;;
3967;SDS011;9221;42.646;23.380;2023-05-07T04:12:15;14.97;;;7.27;;
3967;SDS011;9221;42.646;23.380;2023-05-07T04:14:40;19.57;;;8.63;;
3967;SDS011;9221;42.646;23.380;2023-05-07T04:17:05;30.77;;;7.70;;
3967;SDS011;9221;42.646;23.380;2023-05-07T04:19:32;14.50;;;7.13;;
3967;SDS011;9221;42.646;23.380;2023-05-07T04:21:58;18.23;;;8.17;;
3967;SDS011;9221;42.646;23.380;2023-05-07T04:24:24;17.70;;;7.40;;
3967;SDS011;9221;42.646;23.380;2023-05-07T04:26:49;14.83;;;7.20;;
3967;SDS011;9221;42.646;23.380;2023-05-07T04:29:16;15.10;;;7.20;;
3967;SDS011;9221;42.646;23.380;2023-05-07T04:31:42;24.33;;;8.17;;
3967;SDS011;9221;42.646;23.380;2023-05-07T04:34:09;26.93;;;8.00;;
3967;SDS011;9221;42.646;23.380;2023-05-07T04:36:36;17.27;;;7.70;;
3967;SDS011;9221;42.646;23.380;2023-05-07T04:39:03;18.77;;;8.77;;
3967;SDS011;9221;42.646;23.380;2023-05-07T04:41:28;20.70;;;8.10;;
3967;SDS011;9221;42.646;23.380;2023-05-07T04:43:54;13.67;;;7.53;;
3967;SDS011;9221;42.646;23.380;2023-05-07T04:46:19;20.73;;;8.00;;
3967;SDS011;9221;42.646;23.380;2023-05-07T04:48:45;13.63;;;7.00;;
3967;SDS011;9221;42.646;23.380;2023-05-07T04:51:10;19.63;;;7.83;;
3967;SDS011;9221;42.646;23.380;2023-05-07T04:53:36;16.93;;;8.10;;
3967;SDS011;9221;42.646;23.380;2023-05-07T04:56:02;18.47;;;8.47;;
3967;SDS011;9221;42.646;23.380;2023-05-07T04:58:28;16.37;;;7.53;;
3967;SDS011;9221;42.646;23.380;2023-05-07T05:00:56;15.70;;;7.80;;
3967;SDS011;9221;42.646;23.380;2023-05-07T05:03:22;29.00;;;8.37;;
3967;SDS011;9221;42.646;23.380;2023-05-07T05:05:48;24.30;;;6.90;;
3967;SDS011;9221;42.646;23.380;2023-05-07T05:08:14;16.30;;;7.43;;
3967;SDS011;9221;42.646;23.380;2023-05-07T05:10:40;14.07;;;7.10;;
3967;SDS011;9221;42.646;23.380;2023-05-07T05:13:06;13.60;;;6.60;;
3967;SDS011;9221;42.646;23.380;2023-05-07T05:15:32;15.77;;;8.07;;
3967;SDS011;9221;42.646;23.380;2023-05-07T05:17:58;19.80;;;8.97;;
3967;SDS011;9221;42.646;23.380;2023-05-07T05:20:23;19.90;;;8.10;;
3967;SDS011;9221;42.646;23.380;2023-05-07T05:22:49;21.00;;;7.27;;
3967;SDS011;9221;42.646;23.380;2023-05-07T05:25:14;17.40;;;7.73;;
3967;SDS011;9221;42.646;23.380;2023-05-07T05:27:40;17.33;;;7.10;;
3967;SDS011;9221;42.646;23.380;2023-05-07T05:30:05;18.97;;;7.50;;
3967;SDS011;9221;42.646;23.380;2023-05-07T05:32:31;15.00;;;6.97;;
3967;SDS011;9221;42.646;23.380;2023-05-07T05:34:57;14.60;;;7.27;;
3967;SDS011;9221;42.646;23.380;2023-05-07T05:37:22;17.13;;;7.43;;
3967;SDS011;9221;42.646;23.380;2023-05-07T05:39:48;23.47;;;8.10;;
3967;SDS011;9221;42.646;23.380;2023-05-07T05:42:13;16.57;;;7.87;;
3967;SDS011;9221;42.646;23.380;2023-05-07T05:44:38;26.70;;;7.40;;
3967;SDS011;9221;42.646;23.380;2023-05-07T05:47:04;17.67;;;7.53;;
3967;SDS011;9221;42.646;23.380;2023-05-07T05:49:29;14.27;;;7.47;;
3967;SDS011;9221;42.646;23.380;2023-05-07T05:51:54;16.40;;;7.50;;
3967;SDS011;9221;42.646;23.380;2023-05-07T05:54:21;15.70;;;7.17;;
3967;SDS011;9221;42.646;23.380;2023-05-07T05:56:46;18.07;;;7.67;;
3967;SDS011;9221;42.646;23.380;2023-05-07T05:59:12;16.53;;;7.57;;
3967;SDS011;9221;42.646;23.380;2023-05-07T06:01:37;22.63;;;7.53;;
3967;SDS011;9221;42.646;23.380;2023-05-07T06:04:03;14.90;;;7.20;;
3967;SDS011;9221;42.646;23.380;2023-05-07T06:06:29;17.13;;;7.50;;
3967;SDS011;9221;42.646;23.380;2023-05-07T06:08:56;22.60;;;6.70;;
3967;SDS011;9221;42.646;23.380;2023-05-07T06:11:21;17.00;;;7.57;;
3967;SDS011;9221;42.646;23.380;2023-05-07T06:13:46;22.07;;;6.77;;
3967;SDS011;9221;42.646;23.380;2023-05-07T06:16:12;12.57;;;7.00;;
3967;SDS011;9221;42.646;23.380;2023-05-07T06:18:37;14.17;;;7.47;;
3967;SDS011;9221;42.646;23.380;2023-05-07T06:21:03;15.83;;;7.60;;
3967;SDS011;9221;42.646;23.380;2023-05-07T06:23:28;21.07;;;6.80;;
3967;SDS011;9221;42.646;23.380;2023-05-07T06:25:54;15.23;;;7.43;;
3967;SDS011;9221;42.646;23.380;2023-05-07T06:28:19;18.30;;;7.50;;
3967;SDS011;9221;42.646;23.380;2023-05-07T06:30:45;14.23;;;6.43;;
3967;SDS011;9221;42.646;23.380;2023-05-07T06:33:10;18.27;;;6.93;;
3967;SDS011;9221;42.646;23.380;2023-05-07T06:35:35;15.93;;;7.37;;
3967;SDS011;9221;42.646;23.380;2023-05-07T06:38:01;13.60;;;6.70;;
3967;SDS011;9221;42.646;23.380;2023-05-07T06:40:26;12.80;;;6.83;;
3967;SDS011;9221;42.646;23.380;2023-05-07T06:42:52;12.23;;;6.67;;
3967;SDS011;9221;42.646;23.380;2023-05-07T06:45:18;11.20;;;6.20;;
3967;SDS011;9221;42.646;23.380;2023-05-07T06:47:44;15.37;;;6.53;;
3967;SDS011;9221;42.646;23.380;2023-05-07T06:50:10;14.03;;;6.33;;
3967;SDS011;9221;42.646;23.380;2023-05-07T06:52:35;17.17;;;6.47;;
3967;SDS011;9221;42.646;23.380;2023-05-07T06:55:01;11.07;;;6.47;;
3967;SDS011;9221;42.646;23.380;2023-05-07T06:57:26;13.13;;;6.03;;
3967;SDS011;9221;42.646;23.380;2023-05-07T06:59:51;17.70;;;6.00;;
3967;SDS011;9221;42.646;23.380;2023-05-07T07:02:17;16.20;;;6.10;;
3967;SDS011;9221;42.646;23.380;2023-05-07T07:04:42;12.40;;;5.70;;
3967;SDS011;9221;42.646;23.380;2023-05-07T07:07:08;10.47;;;5.27;;
3967;SDS011;9221;42.646;23.380;2023-05-07T07:09:33;12.30;;;6.10;;
3967;SDS011;9221;42.646;23.380;2023-05-07T07:11:58;10.73;;;5.40;;
3967;SDS011;9221;42.646;23.380;2023-05-07T07:14:24;13.10;;;6.37;;
3967;SDS011;9221;42.646;23.380;2023-05-07T07:16:49;13.27;;;5.67;;
3967;SDS011;9221;42.646;23.380;2023-05-07T07:19:15;14.43;;;6.40;;
3967;SDS011;9221;42.646;23.380;2023-05-07T07:21:40;16.90;;;5.80;;
3967;SDS011;9221;42.646;23.380;2023-05-07T07:24:06;17.80;;;6.10;;
3967;SDS011;9221;42.646;23.380;2023-05-07T07:26:32;14.87;;;6.70;;
3967;SDS011;9221;42.646;23.380;2023-05-07T07:28:57;10.80;;;6.20;;
3967;SDS011;9221;42.646;23.380;2023-05-07T07:31:22;14.17;;;5.83;;
3967;SDS011;9221;42.646;23.380;2023-05-07T07:33:48;13.10;;;6.43;;
3967;SDS011;9221;42.646;23.380;2023-05-07T07:36:15;14.00;;;6.40;;
3967;SDS011;9221;42.646;23.380;2023-05-07T07:38:41;17.73;;;6.53;;
3967;SDS011;9221;42.646;23.380;2023-05-07T07:41:07;15.20;;;6.07;;
3967;SDS011;9221;42.646;23.380;2023-05-07T07:43:34;44.87;;;6.63;;
3967;SDS011;9221;42.646;23.380;2023-05-07T07:46:00;12.20;;;5.80;;
3967;SDS011;9221;42.646;23.380;2023-05-07T07:48:26;11.70;;;5.77;;
3967;SDS011;9221;42.646;23.380;2023-05-07T07:50:51;9.73;;;5.47;;
3967;SDS011;9221;42.646;23.380;2023-05-07T07:53:16;13.20;;;6.67;;
3967;SDS011;9221;42.646;23.380;2023-05-07T07:55:42;9.90;;;5.90;;
3967;SDS011;9221;42.646;23.380;2023-05-07T07:58:07;20.37;;;6.50;;
3967;SDS011;9221;42.646;23.380;2023-05-07T08:00:33;17.83;;;6.60;;
3967;SDS011;9221;42.646;23.380;2023-05-07T08:02:58;9.43;;;5.30;;
3967;SDS011;9221;42.646;23.380;2023-05-07T08:05:24;20.77;;;5.80;;
3967;SDS011;9221;42.646;23.380;2023-05-07T08:07:50;14.37;;;5.73;;
3967;SDS011;9221;42.646;23.380;2023-05-07T08:10:17;11.80;;;6.00;;
3967;SDS011;9221;42.646;23.380;2023-05-07T08:12:46;10.23;;;4.97;;
3967;SDS011;9221;42.646;23.380;2023-05-07T08:15:13;11.70;;;5.40;;
3967;SDS011;9221;42.646;23.380;2023-05-07T08:17:38;9.30;;;5.50;;
3967;SDS011;9221;42.646;23.380;2023-05-07T08:20:04;12.00;;;5.47;;
3967;SDS011;9221;42.646;23.380;2023-05-07T08:22:30;11.00;;;6.70;;
3967;SDS011;9221;42.646;23.380;2023-05-07T08:24:55;10.70;;;5.43;;
3967;SDS011;9221;42.646;23.380;2023-05-07T08:27:20;15.70;;;6.50;;
3967;SDS011;9221;42.646;23.380;2023-05-07T08:29:46;15.33;;;5.70;;
3967;SDS011;9221;42.646;23.380;2023-05-07T08:32:12;14.40;;;5.37;;
3967;SDS011;9221;42.646;23.380;2023-05-07T08:34:38;12.50;;;5.50;;
3967;SDS011;9221;42.646;23.380;2023-05-07T08:37:04;10.13;;;5.17;;
3967;SDS011;9221;42.646;23.380;2023-05-07T08:39:29;11.87;;;5.07;;
3967;SDS011;9221;42.646;23.380;2023-05-07T08:41:55;13.53;;;5.20;;
3967;SDS011;9221;42.646;23.380;2023-05-07T08:44:23;7.20;;;4.73;;
3967;SDS011;9221;42.646;23.380;2023-05-07T08:46:53;12.30;;;5.03;;
3967;SDS011;9221;42.646;23.380;2023-05-07T08:49:20;9.17;;;5.30;;
3967;SDS011;9221;42.646;23.380;2023-05-07T08:51:46;10.50;;;4.60;;
3967;SDS011;9221;42.646;23.380;2023-05-07T08:54:12;9.07;;;4.90;;
3967;SDS011;9221;42.646;23.380;2023-05-07T08:56:41;7.83;;;4.33;;
3967;SDS011;9221;42.646;23.380;2023-05-07T08:59:06;11.57;;;5.10;;
3967;SDS011;9221;42.646;23.380;2023-05-07T09:01:32;10.13;;;4.53;;
3967;SDS011;9221;42.646;23.380;2023-05-07T09:03:57;5.83;;;3.83;;
3967;SDS011;9221;42.646;23.380;2023-05-07T09:06:23;8.70;;;4.33;;
3967;SDS011;9221;42.646;23.380;2023-05-07T09:08:51;13.17;;;3.70;;
3967;SDS011;9221;42.646;23.380;2023-05-07T09:11:23;7.10;;;3.90;;
3967;SDS011;9221;42.646;23.380;2023-05-07T09:13:52;7.20;;;3.97;;
3967;SDS011;9221;42.646;23.380;2023-05-07T09:16:20;8.60;;;3.90;;
3967;SDS011;9221;42.646;23.380;2023-05-07T09:18:46;6.80;;;3.60;;
3967;SDS011;9221;42.646;23.380;2023-05-07T09:21:16;15.63;;;4.50;;
3967;SDS011;9221;42.646;23.380;2023-05-07T09:23:42;10.20;;;3.90;;
3967;SDS011;9221;42.646;23.380;2023-05-07T09:26:07;7.63;;;3.77;;
3967;SDS011;9221;42.646;23.380;2023-05-07T09:28:42;8.23;;;3.70;;
3967;SDS011;9221;42.646;23.380;2023-05-07T09:31:08;8.27;;;3.90;;
3967;SDS011;9221;42.646;23.380;2023-05-07T09:33:34;5.40;;;3.57;;
3967;SDS011;9221;42.646;23.380;2023-05-07T09:36:07;5.43;;;3.27;;
3967;SDS011;9221;42.646;23.380;2023-05-07T09:38:34;7.17;;;3.70;;
3967;SDS011;9221;42.646;23.380;2023-05-07T09:41:04;6.93;;;3.30;;
3967;SDS011;9221;42.646;23.380;2023-05-07T09:43:32;5.93;;;3.23;;
3967;SDS011;9221;42.646;23.380;2023-05-07T09:46:01;4.77;;;3.20;;
3967;SDS011;9221;42.646;23.380;2023-05-07T09:48:28;6.20;;;4.07;;
3967;SDS011;9221;42.646;23.380;2023-05-07T09:50:55;6.27;;;3.47;;
3967;SDS011;9221;42.646;23.380;2023-05-07T09:53:23;10.73;;;3.60;;
3967;SDS011;9221;42.646;23.380;2023-05-07T09:55:50;4.70;;;3.40;;
3967;SDS011;9221;42.646;23.380;2023-05-07T09:58:16;7.90;;;2.90;;
3967;SDS011;9221;42.646;23.380;2023-05-07T10:00:43;4.43;;;2.80;;
3967;SDS011;9221;42.646;23.380;2023-05-07T10:03:10;8.27;;;2.70;;
3967;SDS011;9221;42.646;23.380;2023-05-07T10:05:37;6.63;;;2.97;;
3967;SDS011;9221;42.646;23.380;2023-05-07T10:08:04;5.33;;;2.90;;
3967;SDS011;9221;42.646;23.380;2023-05-07T10:10:30;7.10;;;2.43;;
3967;SDS011;9221;42.646;23.380;2023-05-07T10:12:57;4.10;;;2.70;;
3967;SDS011;9221;42.646;23.380;2023-05-07T10:15:24;6.93;;;2.60;;
3967;SDS011;9221;42.646;23.380;2023-05-07T10:17:50;6.40;;;2.67;;
3967;SDS011;9221;42.646;23.380;2023-05-07T10:20:18;3.73;;;2.40;;
3967;SDS011;9221;42.646;23.380;2023-05-07T10:22:44;8.83;;;3.23;;
3967;SDS011;9221;42.646;23.380;2023-05-07T10:25:18;4.70;;;3.23;;
3967;SDS011;9221;42.646;23.380;2023-05-07T10:27:46;5.13;;;2.90;;
3967;SDS011;9221;42.646;23.380;2023-05-07T10:30:58;5.47;;;2.47;;
3967;SDS011;9221;42.646;23.380;2023-05-07T10:33:23;3.70;;;2.50;;
3967;SDS011;9221;42.646;23.380;2023-05-07T10:35:50;3.97;;;2.60;;
3967;SDS011;9221;42.646;23.380;2023-05-07T10:38:16;5.37;;;2.70;;
3967;SDS011;9221;42.646;23.380;2023-05-07T10:40:42;3.77;;;2.73;;
3967;SDS011;9221;42.646;23.380;2023-05-07T10:43:08;4.40;;;3.07;;
3967;SDS011;9221;42.646;23.380;2023-05-07T10:45:34;4.27;;;3.07;;
3967;SDS011;9221;42.646;23.380;2023-05-07T10:48:14;3.40;;;2.63;;
3967;SDS011;9221;42.646;23.380;2023-05-07T10:50:42;5.00;;;2.70;;
3967;SDS011;9221;42.646;23.380;2023-05-07T10:55:47;4.10;;;2.50;;
3967;SDS011;9221;42.646;23.380;2023-05-07T10:58:26;3.20;;;2.53;;
3967;SDS011;9221;42.646;23.380;2023-05-07T11:00:56;5.70;;;2.70;;
3967;SDS011;9221;42.646;23.380;2023-05-07T11:03:23;4.23;;;2.63;;
3967;SDS011;9221;42.646;23.380;2023-05-07T11:06:08;5.73;;;3.27;;
3967;SDS011;9221;42.646;23.380;2023-05-07T11:11:17;6.80;;;2.83;;
3967;SDS011;9221;42.646;23.380;2023-05-07T11:13:45;6.50;;;3.27;;
3967;SDS011;9221;42.646;23.380;2023-05-07T11:16:18;4.60;;;3.00;;
3967;SDS011;9221;42.646;23.380;2023-05-07T11:18:53;4.17;;;3.10;;
3967;SDS011;9221;42.646;23.380;2023-05-07T11:24:00;7.83;;;3.40;;
3967;SDS011;9221;42.646;23.380;2023-05-07T11:26:27;3.47;;;2.43;;
3967;SDS011;9221;42.646;23.380;2023-05-07T11:28:55;5.30;;;2.63;;
3967;SDS011;9221;42.646;23.380;2023-05-07T11:31:22;5.47;;;2.83;;
3967;SDS011;9221;42.646;23.380;2023-05-07T11:33:51;3.67;;;2.70;;
3967;SDS011;9221;42.646;23.380;2023-05-07T11:36:17;9.67;;;2.87;;
3967;SDS011;9221;42.646;23.380;2023-05-07T11:38:43;8.03;;;2.83;;
3967;SDS011;9221;42.646;23.380;2023-05-07T11:41:08;3.50;;;2.83;;
3967;SDS011;9221;42.646;23.380;2023-05-07T11:43:35;5.17;;;2.80;;
3967;SDS011;9221;42.646;23.380;2023-05-07T11:46:08;4.00;;;2.90;;
3967;SDS011;9221;42.646;23.380;2023-05-07T11:48:34;3.30;;;2.50;;
3967;SDS011;9221;42.646;23.380;2023-05-07T11:51:01;5.13;;;2.80;;
3967;SDS011;9221;42.646;23.380;2023-05-07T11:53:34;4.63;;;2.73;;
3967;SDS011;9221;42.646;23.380;2023-05-07T11:56:22;3.60;;;2.53;;
3967;SDS011;9221;42.646;23.380;2023-05-07T11:58:47;5.07;;;3.33;;
3967;SDS011;9221;42.646;23.380;2023-05-07T12:01:14;4.70;;;2.80;;
3967;SDS011;9221;42.646;23.380;2023-05-07T12:03:41;10.30;;;2.97;;
3967;SDS011;9221;42.646;23.380;2023-05-07T12:06:08;4.73;;;3.00;;
3967;SDS011;9221;42.646;23.380;2023-05-07T12:08:37;5.10;;;3.20;;
3967;SDS011;9221;42.646;23.380;2023-05-07T12:11:04;5.20;;;2.87;;
3967;SDS011;9221;42.646;23.380;2023-05-07T12:13:33;3.13;;;2.53;;
3967;SDS011;9221;42.646;23.380;2023-05-07T12:15:58;3.60;;;2.90;;
3967;SDS011;9221;42.646;23.380;2023-05-07T12:18:24;7.10;;;2.70;;
3967;SDS011;9221;42.646;23.380;2023-05-07T12:20:50;8.20;;;2.70;;
3967;SDS011;9221;42.646;23.380;2023-05-07T12:23:15;3.13;;;2.50;;
3967;SDS011;9221;42.646;23.380;2023-05-07T12:25:42;4.33;;;2.83;;
3967;SDS011;9221;42.646;23.380;2023-05-07T12:28:13;6.17;;;2.80;;
3967;SDS011;9221;42.646;23.380;2023-05-07T12:30:40;10.10;;;3.17;;
3967;SDS011;9221;42.646;23.380;2023-05-07T12:33:07;4.27;;;2.90;;
3967;SDS011;9221;42.646;23.380;2023-05-07T12:35:37;7.30;;;3.53;;
3967;SDS011;9221;42.646;23.380;2023-05-07T12:38:08;9.47;;;3.00;;
3967;SDS011;9221;42.646;23.380;2023-05-07T12:43:01;6.43;;;2.70;;
3967;SDS011;9221;42.646;23.380;2023-05-07T12:45:27;6.47;;;2.90;;
3967;SDS011;9221;42.646;23.380;2023-05-07T12:47:52;5.20;;;2.43;;
3967;SDS011;9221;42.646;23.380;2023-05-07T12:50:18;3.60;;;2.80;;
3967;SDS011;9221;42.646;23.380;2023-05-07T12:52:44;5.87;;;2.83;;
3967;SDS011;9221;42.646;23.380;2023-05-07T12:55:14;10.20;;;3.20;;
3967;SDS011;9221;42.646;23.380;2023-05-07T12:57:41;4.20;;;2.73;;
3967;SDS011;9221;42.646;23.380;2023-05-07T13:00:08;6.70;;;2.60;;
3967;SDS011;9221;42.646;23.380;2023-05-07T13:02:37;9.30;;;2.40;;
3967;SDS011;9221;42.646;23.380;2023-05-07T13:05:03;3.30;;;2.53;;
3967;SDS011;9221;42.646;23.380;2023-05-07T13:07:29;5.67;;;2.90;;
3967;SDS011;9221;42.646;23.380;2023-05-07T13:09:54;3.80;;;2.77;;
3967;SDS011;9221;42.646;23.380;2023-05-07T13:12:20;6.20;;;2.53;;
3967;SDS011;9221;42.646;23.380;2023-05-07T13:14:46;5.37;;;2.80;;
3967;SDS011;9221;42.646;23.380;2023-05-07T13:17:11;6.70;;;2.57;;
3967;SDS011;9221;42.646;23.380;2023-05-07T13:19:36;2.70;;;2.00;;
3967;SDS011;9221;42.646;23.380;2023-05-07T13:22:02;5.10;;;2.50;;
3967;SDS011;9221;42.646;23.380;2023-05-07T13:24:28;2.80;;;2.10;;
3967;SDS011;9221;42.646;23.380;2023-05-07T13:26:53;5.93;;;1.97;;
3967;SDS011;9221;42.646;23.380;2023-05-07T13:29:19;5.90;;;2.60;;
3967;SDS011;9221;42.646;23.380;2023-05-07T13:31:50;3.93;;;2.20;;
3967;SDS011;9221;42.646;23.380;2023-05-07T13:34:15;2.80;;;2.10;;
3967;SDS011;9221;42.646;23.380;2023-05-07T13:36:41;2.90;;;2.17;;
3967;SDS011;9221;42.646;23.380;2023-05-07T13:39:06;6.00;;;1.90;;
3967;SDS011;9221;42.646;23.380;2023-05-07T13:41:32;5.33;;;2.77;;
3967;SDS011;9221;42.646;23.380;2023-05-07T13:43:57;3.13;;;2.23;;
3967;SDS011;9221;42.646;23.380;2023-05-07T13:46:23;5.67;;;2.07;;
3967;SDS011;9221;42.646;23.380;2023-05-07T13:48:48;3.30;;;1.90;;
3967;SDS011;9221;42.646;23.380;2023-05-07T13:51:14;7.00;;;2.30;;
3967;SDS011;9221;42.646;23.380;2023-05-07T13:53:39;4.37;;;2.20;;
3967;SDS011;9221;42.646;23.380;2023-05-07T13:56:04;3.90;;;1.80;;
3967;SDS011;9221;42.646;23.380;2023-05-07T13:58:30;5.90;;;2.37;;
3967;SDS011;9221;42.646;23.380;2023-05-07T14:00:55;3.13;;;2.37;;
3967;SDS011;9221;42.646;23.380;2023-05-07T14:03:21;4.10;;;2.40;;
3967;SDS011;9221;42.646;23.380;2023-05-07T14:05:46;2.30;;;2.03;;
3967;SDS011;9221;42.646;23.380;2023-05-07T14:08:12;5.83;;;2.10;;
3967;SDS011;9221;42.646;23.380;2023-05-07T14:10:39;4.30;;;2.00;;
3967;SDS011;9221;42.646;23.380;2023-05-07T14:13:05;4.37;;;2.30;;
3967;SDS011;9221;42.646;23.380;2023-05-07T14:15:31;2.77;;;2.07;;
3967;SDS011;9221;42.646;23.380;2023-05-07T14:17:57;11.70;;;2.27;;
3967;SDS011;9221;42.646;23.380;2023-05-07T14:20:24;2.93;;;2.00;;
3967;SDS011;9221;42.646;23.380;2023-05-07T14:22:49;7.80;;;2.10;;
3967;SDS011;9221;42.646;23.380;2023-05-07T14:25:15;4.00;;;2.00;;
3967;SDS011;9221;42.646;23.380;2023-05-07T14:27:40;4.83;;;1.80;;
3967;SDS011;9221;42.646;23.380;2023-05-07T14:30:06;3.57;;;2.47;;
3967;SDS011;9221;42.646;23.380;2023-05-07T14:32:32;3.03;;;2.30;;
3967;SDS011;9221;42.646;23.380;2023-05-07T14:34:58;6.83;;;2.47;;
3967;SDS011;9221;42.646;23.380;2023-05-07T14:37:23;23.53;;;2.73;;
3967;SDS011;9221;42.646;23.380;2023-05-07T14:39:49;3.90;;;2.33;;
3967;SDS011;9221;42.646;23.380;2023-05-07T14:42:14;7.30;;;1.80;;
3967;SDS011;9221;42.646;23.380;2023-05-07T14:44:40;3.90;;;2.07;;
3967;SDS011;9221;42.646;23.380;2023-05-07T14:47:06;6.63;;;2.37;;
3967;SDS011;9221;42.646;23.380;2023-05-07T14:49:32;3.93;;;2.07;;
3967;SDS011;9221;42.646;23.380;2023-05-07T14:51:58;6.10;;;2.10;;
3967;SDS011;9221;42.646;23.380;2023-05-07T14:54:27;7.00;;;2.57;;
3967;SDS011;9221;42.646;23.380;2023-05-07T14:56:52;7.67;;;1.93;;
3967;SDS011;9221;42.646;23.380;2023-05-07T14:59:18;2.33;;;1.63;;
3967;SDS011;9221;42.646;23.380;2023-05-07T15:01:46;2.67;;;2.10;;